IOLK1: Grand River, Iola

Data processed at Fri Jun 05 2020 23:15


All information presented herein is the property of the government of the United States of America and may be revised or deleted at any time without prior notice.
Dissemination of this information without the expressed written consent of the Public Affairs Office, Tulsa District U.S. Army Corps of Engineers is strictly prohibited.
These data are gathered electronically and, as presented, have not undergone any form of quality control. These data are not guaranteed to be valid or correct.
Go to home page.
Go to station list.
Go to home page.

Upstream stations:

Downstream station:
Previous Day
Next Day
Current Day
    
SHEF ID:       IOLK1     NEOSHO RIVER NEAR IOLA
STATION TYPE:  
Regulating: Stage =    15.00, Flow =    18228

               PRECIP     STAGE  RIV-FLOW  AIR-TEMP  BAT-LOAD
                   in        ft       cfs         F      volt
              Ccp-Rev   Ccp-Rev   Ccp-Rev   Ccp-Rev   Ccp-Rev
(US/Central)
06/05 00:00      0.00      9.95      8085     81.68     12.73
06/05 01:00      0.00      9.95      8085     80.35     12.73
06/05 02:00      0.00      9.94      8041     80.09     12.65
06/05 03:00      0.00      9.95      8085     78.62     12.65
06/05 04:00      0.00      9.93      7996     77.85     12.65
06/05 05:00      0.00      9.95      8085     72.85     12.65
06/05 06:00      0.00      9.95      8085     72.66     12.57
06/05 07:00      0.00      9.98      8219     71.83     12.57
06/05 08:00      0.00      9.98      8219     73.31     12.65
06/05 09:00      0.00      9.95      8085     78.35     13.05
06/05 10:00      0.00      9.94      8041     83.32     13.53
06/05 11:00      0.00      9.97      8174     87.24     13.44
06/05 12:00      0.00      9.91      7908     91.99     13.44
06/05 13:00      0.00      9.92      7952     94.83     13.29
06/05 14:00      0.00      9.92      7952     96.84     13.37
06/05 15:00      0.00      9.92      7952     97.81     13.13
06/05 16:00      0.00      9.93      7996     97.87     13.05
06/05 17:00      0.00      9.91      7908     98.12     13.05
06/05 18:00      0.00      9.90      7864     97.84     13.05
06/05 19:00      0.00      9.89      7820     96.66     12.97
06/05 20:00      0.00      9.90      7864     93.72     12.89
06/05 21:00      0.00      9.91      7908     88.92     12.81
06/05 22:00      0.00      9.89      7820     84.48     12.73
06/05 23:00      ----      ----      ----      ----      ----